Terminal Aerodrome Forecast
Issued by NWS

Current Version | Previous Version | Text Only | Print | Product List | Glossary On
Versions: 1 2 3 4 5 6 7 8 9 10 11 12 13 14
363
FTUS43 KSGF 242325
TAFJLN
TAF
KJLN 242325Z 2500/2524 19011KT P6SM FEW250
     FM250600 19010KT P6SM FEW250 WS020/21040KT
     FM250700 19010KT P6SM FEW250
     FM251500 22010KT P6SM FEW250
     FM252200 21006KT P6SM SCT200=

USA.gov is the U.S. government's official web portal to all federal, state and local government web resources and services.